createdAt,value
2018-08-07T00:00:23.870Z,13.88
2018-08-07T00:00:57.562Z,13.85
2018-08-07T00:01:31.402Z,14.18
2018-08-07T00:02:05.163Z,13.48
2018-08-07T00:02:38.814Z,13.75
2018-08-07T00:03:12.480Z,12.90
2018-08-07T00:03:46.333Z,14.35
2018-08-07T00:04:20.054Z,14.15
2018-08-07T00:04:53.723Z,12.40
2018-08-07T00:05:27.457Z,13.43
2018-08-07T00:06:01.119Z,13.75
2018-08-07T00:06:34.845Z,13.78
2018-08-07T00:07:08.583Z,14.35
2018-08-07T00:07:42.663Z,13.25
2018-08-07T00:08:16.112Z,15.88
2018-08-07T00:08:49.815Z,14.70
2018-08-07T00:09:23.475Z,14.10
2018-08-07T00:09:57.189Z,13.25
2018-08-07T00:10:30.855Z,15.80
2018-08-07T00:11:04.812Z,14.05
2018-08-07T00:11:38.419Z,13.28
2018-08-07T00:12:12.158Z,14.30
2018-08-07T00:12:45.946Z,12.87
2018-08-07T00:13:19.646Z,13.40
2018-08-07T00:13:53.402Z,12.50
2018-08-07T00:14:26.848Z,12.85
2018-08-07T00:15:00.564Z,12.82
2018-08-07T00:15:34.438Z,12.60
2018-08-07T00:16:08.478Z,13.05
2018-08-07T00:16:42.198Z,15.00
2018-08-07T00:17:15.919Z,12.50
2018-08-07T00:17:49.576Z,13.78
2018-08-07T00:18:23.264Z,12.43
2018-08-07T00:18:56.974Z,13.75
2018-08-07T00:19:30.700Z,14.00
2018-08-07T00:20:04.729Z,13.15
2018-08-07T00:20:38.396Z,15.32
2018-08-07T00:21:12.210Z,13.65
2018-08-07T00:21:45.952Z,12.65
2018-08-07T00:22:19.721Z,13.20
2018-08-07T00:22:53.414Z,12.98
2018-08-07T00:23:27.139Z,13.00
2018-08-07T00:24:00.900Z,13.83
2018-08-07T00:24:34.582Z,13.35
2018-08-07T00:25:09.412Z,13.43
2018-08-07T00:25:43.216Z,13.10
2018-08-07T00:26:16.864Z,15.45
2018-08-07T00:26:50.542Z,12.50
2018-08-07T00:27:24.239Z,15.48
2018-08-07T00:27:57.955Z,13.72
2018-08-07T00:28:31.622Z,14.10
2018-08-07T00:29:05.482Z,14.90
2018-08-07T00:29:39.192Z,12.58
2018-08-07T00:30:15.676Z,13.15
2018-08-07T00:30:49.384Z,13.98
2018-08-07T00:31:23.368Z,14.30
2018-08-07T00:31:57.073Z,14.20
2018-08-07T00:32:30.824Z,12.68
2018-08-07T00:33:04.564Z,13.15
2018-08-07T00:33:38.270Z,12.80
2018-08-07T00:34:11.960Z,12.13
2018-08-07T00:34:45.730Z,13.78
2018-08-07T00:35:19.828Z,12.80
2018-08-07T00:35:53.518Z,12.85
2018-08-07T00:36:27.214Z,14.40
2018-08-07T00:37:00.888Z,13.18
2018-08-07T00:37:34.908Z,13.65
2018-08-07T00:38:08.594Z,14.80
2018-08-07T00:38:42.304Z,15.65
2018-08-07T00:39:16.042Z,12.65
2018-08-07T00:39:49.718Z,13.62
2018-08-07T00:40:23.398Z,13.68
2018-08-07T00:40:57.182Z,13.20
2018-08-07T00:41:30.843Z,12.88
2018-08-07T00:42:04.582Z,14.28
2018-08-07T00:42:38.495Z,14.75
2018-08-07T00:43:12.163Z,13.65
2018-08-07T00:43:45.867Z,19.15
2018-08-07T00:44:19.629Z,14.65
2018-08-07T00:44:53.330Z,18.17
2018-08-07T00:45:26.988Z,14.93
2018-08-07T00:46:00.672Z,14.35
2018-08-07T00:46:34.391Z,16.93
2018-08-07T00:47:08.136Z,15.05
2018-08-07T00:47:41.992Z,14.90
2018-08-07T00:48:15.747Z,14.95
2018-08-07T00:48:49.460Z,16.45
2018-08-07T00:49:23.133Z,14.70
2018-08-07T00:49:56.923Z,15.00
2018-08-07T00:50:30.681Z,14.80
2018-08-07T00:51:04.329Z,14.68
2018-08-07T00:51:38.107Z,14.50
2018-08-07T00:52:11.810Z,16.97
2018-08-07T00:52:46.741Z,15.70
2018-08-07T00:53:20.430Z,16.07
2018-08-07T00:53:54.159Z,15.60
2018-08-07T00:54:28.019Z,15.35
2018-08-07T00:55:01.758Z,14.83
2018-08-07T00:55:35.429Z,14.30
2018-08-07T00:56:09.125Z,13.75
2018-08-07T00:56:42.817Z,13.35
2018-08-07T00:57:16.592Z,14.38
2018-08-07T00:57:50.787Z,17.12
2018-08-07T00:58:24.496Z,13.32
2018-08-07T00:58:58.237Z,12.80
2018-08-07T00:59:31.929Z,13.72
2018-08-07T01:00:09.848Z,13.58
2018-08-07T01:00:43.519Z,13.90
2018-08-07T01:01:17.237Z,13.38
2018-08-07T01:01:50.921Z,15.40
2018-08-07T01:02:24.571Z,14.60
2018-08-07T01:02:58.285Z,13.22
2018-08-07T01:03:32.459Z,16.05
2018-08-07T01:04:06.189Z,13.28
2018-08-07T01:04:39.849Z,13.50
2018-08-07T01:05:15.399Z,14.07
2018-08-07T01:05:49.087Z,13.80
2018-08-07T01:06:22.784Z,13.53
2018-08-07T01:06:56.498Z,14.80
2018-08-07T01:07:30.308Z,13.20
2018-08-07T01:08:04.045Z,13.50
2018-08-07T01:08:37.769Z,14.60
2018-08-07T01:09:11.737Z,13.40
2018-08-07T01:09:45.439Z,13.65
2018-08-07T01:10:19.168Z,13.30
2018-08-07T01:10:52.840Z,14.43
2018-08-07T01:11:26.562Z,15.03
2018-08-07T01:12:00.289Z,15.13
2018-08-07T01:12:34.083Z,14.33
2018-08-07T01:13:07.763Z,13.98
2018-08-07T01:13:41.453Z,14.40
2018-08-07T01:14:15.336Z,14.98
2018-08-07T01:14:49.049Z,13.58
2018-08-07T01:15:22.741Z,15.70
2018-08-07T01:15:56.483Z,13.98
2018-08-07T01:16:30.147Z,15.48
2018-08-07T01:17:03.847Z,14.70
2018-08-07T01:17:37.592Z,14.38
2018-08-07T01:18:11.320Z,14.35
2018-08-07T01:18:45.038Z,14.87
2018-08-07T01:19:18.667Z,13.60
2018-08-07T01:19:52.467Z,14.45
2018-08-07T01:20:26.168Z,14.73
2018-08-07T01:20:59.897Z,15.13
2018-08-07T01:21:33.639Z,14.60
2018-08-07T01:22:07.363Z,15.32
2018-08-07T01:22:41.540Z,17.17
2018-08-07T01:23:15.295Z,15.15
2018-08-07T01:23:48.974Z,16.75
2018-08-07T01:24:22.810Z,15.30
2018-08-07T01:24:56.473Z,15.10
2018-08-07T01:25:30.187Z,14.85
2018-08-07T01:26:03.952Z,17.12
2018-08-07T01:26:37.671Z,14.87
2018-08-07T01:27:11.323Z,14.17
2018-08-07T01:27:45.014Z,15.25
2018-08-07T01:28:18.704Z,14.70
2018-08-07T01:28:52.498Z,18.00
2018-08-07T01:29:26.186Z,14.83
2018-08-07T01:29:59.877Z,14.07
2018-08-07T01:30:33.706Z,15.90
2018-08-07T01:31:07.441Z,15.58
2018-08-07T01:31:41.179Z,16.02
2018-08-07T01:32:14.881Z,14.60
2018-08-07T01:32:48.576Z,15.32
2018-08-07T01:33:22.277Z,14.95
2018-08-07T01:33:55.979Z,16.67
2018-08-07T01:34:29.633Z,15.30
2018-08-07T01:35:03.399Z,16.02
2018-08-07T01:35:37.092Z,14.68
2018-08-07T01:36:10.736Z,16.42
2018-08-07T01:36:44.407Z,15.58
2018-08-07T01:37:18.115Z,15.72
2018-08-07T01:37:51.886Z,16.50
2018-08-07T01:38:25.550Z,18.23
2018-08-07T01:38:59.224Z,16.27
2018-08-07T01:39:33.128Z,16.45
2018-08-07T01:40:09.111Z,15.80
2018-08-07T01:40:42.773Z,16.40
2018-08-07T01:41:16.450Z,15.28
2018-08-07T01:41:50.116Z,14.65
2018-08-07T01:42:23.783Z,16.37
2018-08-07T01:42:57.441Z,17.12
2018-08-07T01:43:31.103Z,18.35
2018-08-07T01:44:05.206Z,18.05
2018-08-07T01:44:38.833Z,17.45
2018-08-07T01:45:12.587Z,15.13
2018-08-07T01:45:46.272Z,17.98
2018-08-07T01:46:19.897Z,17.00
2018-08-07T01:46:53.531Z,15.78
2018-08-07T01:47:27.227Z,16.65
2018-08-07T01:48:00.846Z,16.37
2018-08-07T01:48:34.658Z,15.78
2018-08-07T01:49:08.331Z,15.48
2018-08-07T01:49:41.990Z,15.45
2018-08-07T01:50:16.118Z,14.87
2018-08-07T01:50:49.731Z,16.60
2018-08-07T01:51:23.423Z,16.02
2018-08-07T01:51:57.105Z,16.30
2018-08-07T01:52:30.783Z,17.15
2018-08-07T01:53:04.478Z,17.05
2018-08-07T01:53:38.101Z,15.38
2018-08-07T01:54:11.815Z,16.10
2018-08-07T01:54:45.491Z,16.02
2018-08-07T01:55:25.859Z,17.60
2018-08-07T01:55:59.563Z,16.55
2018-08-07T01:56:33.255Z,17.52
2018-08-07T01:57:06.920Z,16.05
2018-08-07T01:57:40.559Z,14.53
2018-08-07T01:58:14.273Z,15.15
2018-08-07T01:58:47.923Z,15.85
2018-08-07T01:59:21.558Z,16.95
2018-08-07T01:59:55.168Z,14.03
2018-08-07T02:00:28.829Z,14.45
2018-08-07T02:01:02.519Z,15.70
2018-08-07T02:01:36.208Z,14.95
2018-08-07T02:02:09.899Z,14.75
2018-08-07T02:02:43.612Z,15.50
2018-08-07T02:03:17.316Z,15.18
2018-08-07T02:03:50.979Z,18.65
2018-08-07T02:04:24.785Z,14.20
2018-08-07T02:04:58.498Z,14.28
2018-08-07T02:05:32.291Z,14.78
2018-08-07T02:06:05.961Z,15.28
2018-08-07T02:06:39.635Z,15.28
2018-08-07T02:07:13.328Z,15.70
2018-08-07T02:07:47.122Z,14.38
2018-08-07T02:08:20.776Z,15.38
2018-08-07T02:08:54.481Z,14.10
2018-08-07T02:09:28.157Z,14.98
2018-08-07T02:10:01.926Z,14.35
2018-08-07T02:10:35.668Z,14.70
2018-08-07T02:11:09.414Z,15.23
2018-08-07T02:11:43.149Z,15.55
2018-08-07T02:12:16.878Z,15.80
2018-08-07T02:12:50.544Z,14.85
2018-08-07T02:13:24.224Z,15.40
2018-08-07T02:13:57.915Z,17.40
2018-08-07T02:14:31.625Z,15.18
2018-08-07T02:15:06.931Z,15.83
2018-08-07T02:15:40.633Z,15.72
2018-08-07T02:16:14.380Z,14.70
2018-08-07T02:16:48.120Z,17.27
2018-08-07T02:17:21.825Z,14.95
2018-08-07T02:17:55.561Z,16.42
2018-08-07T02:18:29.279Z,14.95
2018-08-07T02:19:03.070Z,16.57
2018-08-07T02:19:36.742Z,15.83
2018-08-07T02:20:14.625Z,18.45
2018-08-07T02:20:48.306Z,16.67
2018-08-07T02:21:21.982Z,17.12
2018-08-07T02:21:55.654Z,15.95
2018-08-07T02:22:29.394Z,16.12
2018-08-07T02:23:03.068Z,17.73
2018-08-07T02:23:36.731Z,16.97
2018-08-07T02:24:10.395Z,17.67
2018-08-07T02:24:44.019Z,18.23
2018-08-07T02:25:18.859Z,18.80
2018-08-07T02:25:52.586Z,16.57
2018-08-07T02:26:26.296Z,18.12
2018-08-07T02:27:00.025Z,16.35
2018-08-07T02:27:33.755Z,18.87
2018-08-07T02:28:07.371Z,18.07
2018-08-07T02:28:41.013Z,18.65
2018-08-07T02:29:14.642Z,19.62
2018-08-07T02:29:48.301Z,18.37
2018-08-07T02:30:21.988Z,18.85
2018-08-07T02:30:55.681Z,18.05
2018-08-07T02:31:29.279Z,19.55
2018-08-07T02:32:03.033Z,18.52
2018-08-07T02:32:37.299Z,18.55
2018-08-07T02:33:10.967Z,18.17
2018-08-07T02:33:44.693Z,17.07
2018-08-07T02:34:18.356Z,17.52
2018-08-07T02:34:52.026Z,16.37
2018-08-07T02:35:25.676Z,19.92
2018-08-07T02:35:59.398Z,16.82
2018-08-07T02:36:33.043Z,16.40
2018-08-07T02:37:06.728Z,16.77
2018-08-07T02:37:41.533Z,18.95
2018-08-07T02:38:15.259Z,17.57
2018-08-07T02:38:48.915Z,16.35
2018-08-07T02:39:22.590Z,16.48
2018-08-07T02:39:56.241Z,16.25
2018-08-07T02:40:29.897Z,17.60
2018-08-07T02:41:03.638Z,17.95
2018-08-07T02:41:37.378Z,16.90
2018-08-07T02:42:11.265Z,16.82
2018-08-07T02:42:45.237Z,16.93
2018-08-07T02:43:18.962Z,16.25
2018-08-07T02:43:52.657Z,18.23
2018-08-07T02:44:26.347Z,18.70
2018-08-07T02:45:00.072Z,15.85
2018-08-07T02:45:33.901Z,15.90
2018-08-07T02:46:08.191Z,16.30
2018-08-07T02:46:41.875Z,14.90
2018-08-07T02:47:15.594Z,15.43
2018-08-07T02:47:49.270Z,16.57
2018-08-07T02:48:22.955Z,18.85
2018-08-07T02:48:56.613Z,18.00
2018-08-07T02:49:30.355Z,17.45
2018-08-07T02:50:04.931Z,16.17
2018-08-07T02:50:38.597Z,17.20
2018-08-07T02:51:12.270Z,17.32
2018-08-07T02:51:45.927Z,18.00
2018-08-07T02:52:19.596Z,18.17
2018-08-07T02:52:53.270Z,16.93
2018-08-07T02:53:26.948Z,15.93
2018-08-07T02:54:00.574Z,19.37
2018-08-07T02:54:34.575Z,19.90
2018-08-07T02:55:10.269Z,17.98
2018-08-07T02:55:43.934Z,18.65
2018-08-07T02:56:17.613Z,22.52
2018-08-07T02:56:51.260Z,18.35
2018-08-07T02:57:24.927Z,19.60
2018-08-07T02:57:58.619Z,21.40
2018-08-07T02:58:32.281Z,18.27
2018-08-07T02:59:06.088Z,22.90
2018-08-07T02:59:39.775Z,18.27
2018-08-07T03:00:19.060Z,18.60
2018-08-07T03:00:52.763Z,19.35
2018-08-07T03:01:26.456Z,16.82
2018-08-07T03:02:00.134Z,18.27
2018-08-07T03:02:33.833Z,17.35
2018-08-07T03:03:08.139Z,19.87
2018-08-07T03:03:41.830Z,16.65
2018-08-07T03:04:15.491Z,17.35
2018-08-07T03:04:49.137Z,15.65
2018-08-07T03:05:22.809Z,15.88
2018-08-07T03:05:56.521Z,17.92
2018-08-07T03:06:30.226Z,16.27
2018-08-07T03:07:04.572Z,17.95
2018-08-07T03:07:38.478Z,15.55
2018-08-07T03:08:12.189Z,16.10
2018-08-07T03:08:45.926Z,18.73
2018-08-07T03:09:19.614Z,16.25
2018-08-07T03:09:53.329Z,16.17
2018-08-07T03:10:26.979Z,15.70
2018-08-07T03:11:00.660Z,19.02
2018-08-07T03:11:34.318Z,18.85
2018-08-07T03:12:07.992Z,19.45
2018-08-07T03:12:41.756Z,18.20
2018-08-07T03:13:15.410Z,18.02
2018-08-07T03:13:49.062Z,16.97
2018-08-07T03:14:22.813Z,18.95
2018-08-07T03:14:56.453Z,17.70
2018-08-07T03:15:30.174Z,18.30
2018-08-07T03:16:03.941Z,16.25
2018-08-07T03:16:37.651Z,17.62
2018-08-07T03:17:11.310Z,17.25
2018-08-07T03:17:45.907Z,16.65
2018-08-07T03:18:19.578Z,17.37
2018-08-07T03:18:53.242Z,20.37
2018-08-07T03:19:26.928Z,17.40
2018-08-07T03:20:00.623Z,18.50
2018-08-07T03:20:34.294Z,17.30
2018-08-07T03:21:08.119Z,17.70
2018-08-07T03:21:41.837Z,19.55
2018-08-07T03:22:15.538Z,19.98
2018-08-07T03:22:49.229Z,17.85
2018-08-07T03:23:22.896Z,19.90
2018-08-07T03:23:56.587Z,20.08
2018-08-07T03:24:30.320Z,18.35
2018-08-07T03:25:05.607Z,19.83
2018-08-07T03:25:39.337Z,18.80
2018-08-07T03:26:13.023Z,18.10
2018-08-07T03:26:46.853Z,18.10
2018-08-07T03:27:20.567Z,18.98
2018-08-07T03:27:54.260Z,20.30
2018-08-07T03:28:27.911Z,18.17
2018-08-07T03:29:01.609Z,22.10
2018-08-07T03:29:35.267Z,20.77
2018-08-07T03:30:13.191Z,18.73
2018-08-07T03:30:46.883Z,17.85
2018-08-07T03:31:20.549Z,17.05
2018-08-07T03:31:54.258Z,20.32
2018-08-07T03:32:28.009Z,19.30
2018-08-07T03:33:01.761Z,18.50
2018-08-07T03:33:35.451Z,19.32
2018-08-07T03:34:09.080Z,18.80
2018-08-07T03:34:42.795Z,18.87
2018-08-07T03:35:16.535Z,18.75
2018-08-07T03:35:50.196Z,18.73
2018-08-07T03:36:23.895Z,18.12
2018-08-07T03:36:57.589Z,19.20
2018-08-07T03:37:31.335Z,20.62
2018-08-07T03:38:05.077Z,19.27
2018-08-07T03:38:38.788Z,19.35
2018-08-07T03:39:13.486Z,19.37
2018-08-07T03:39:47.165Z,19.17
2018-08-07T03:40:20.959Z,21.33
2018-08-07T03:40:54.671Z,20.92
2018-08-07T03:41:28.359Z,21.07
2018-08-07T03:42:02.040Z,21.10
2018-08-07T03:42:35.879Z,20.68
2018-08-07T03:43:09.613Z,19.10
2018-08-07T03:43:43.339Z,20.35
2018-08-07T03:44:16.963Z,19.15
2018-08-07T03:44:50.701Z,20.30
2018-08-07T03:45:24.447Z,19.15
2018-08-07T03:45:58.202Z,17.12
2018-08-07T03:46:31.891Z,18.65
2018-08-07T03:47:05.650Z,18.57
2018-08-07T03:47:39.332Z,18.82
2018-08-07T03:48:12.981Z,19.82
2018-08-07T03:48:46.653Z,18.87
2018-08-07T03:49:20.361Z,20.37
2018-08-07T03:49:53.957Z,18.62
2018-08-07T03:50:27.609Z,17.25
2018-08-07T03:51:01.319Z,18.75
2018-08-07T03:51:34.993Z,19.12
2018-08-07T03:52:08.697Z,17.82
2018-08-07T03:52:42.374Z,19.05
2018-08-07T03:53:16.050Z,20.00
2018-08-07T03:53:49.697Z,17.48
2018-08-07T03:54:23.437Z,17.82
2018-08-07T03:54:57.221Z,18.10
2018-08-07T03:55:30.983Z,17.73
2018-08-07T03:56:04.771Z,18.95
2018-08-07T03:56:38.401Z,17.75
2018-08-07T03:57:12.079Z,17.37
2018-08-07T03:57:46.198Z,18.07
2018-08-07T03:58:19.859Z,18.23
2018-08-07T03:58:53.492Z,18.82
2018-08-07T03:59:27.203Z,19.37
2018-08-07T04:00:00.860Z,19.30
2018-08-07T04:00:39.179Z,18.15
2018-08-07T04:01:12.897Z,19.35
2018-08-07T04:01:46.603Z,18.73
2018-08-07T04:02:20.289Z,17.32
2018-08-07T04:02:53.941Z,18.80
2018-08-07T04:03:27.667Z,19.77
2018-08-07T04:04:01.339Z,19.10
2018-08-07T04:04:35.014Z,19.80
2018-08-07T04:05:08.801Z,19.67
2018-08-07T04:05:42.485Z,18.55
2018-08-07T04:06:16.175Z,18.73
2018-08-07T04:06:49.884Z,18.20
2018-08-07T04:07:23.560Z,17.23
2018-08-07T04:07:57.263Z,17.65
2018-08-07T04:08:30.933Z,19.12
2018-08-07T04:09:12.387Z,19.20
2018-08-07T04:09:46.118Z,19.92
2018-08-07T04:10:19.817Z,20.62
2018-08-07T04:10:53.497Z,19.07
2018-08-07T04:11:27.278Z,20.10
2018-08-07T04:12:00.919Z,19.42
2018-08-07T04:12:34.709Z,20.88
2018-08-07T04:13:08.383Z,20.65
2018-08-07T04:13:42.097Z,20.55
2018-08-07T04:14:15.781Z,19.05
2018-08-07T04:14:49.423Z,20.15
2018-08-07T04:15:23.133Z,18.00
2018-08-07T04:15:56.839Z,21.10
2018-08-07T04:16:30.531Z,19.95
2018-08-07T04:17:04.193Z,23.27
2018-08-07T04:17:37.931Z,18.65
2018-08-07T04:18:11.607Z,17.73
2018-08-07T04:18:45.285Z,20.50
2018-08-07T04:19:18.967Z,21.02
2018-08-07T04:19:52.636Z,18.20
2018-08-07T04:20:26.327Z,21.62
2018-08-07T04:20:59.999Z,21.77
2018-08-07T04:21:33.695Z,19.27
2018-08-07T04:22:07.397Z,19.73
2018-08-07T04:22:41.151Z,20.45
2018-08-07T04:23:14.837Z,19.75
2018-08-07T04:23:48.469Z,21.42
2018-08-07T04:24:22.201Z,19.77
2018-08-07T04:24:55.839Z,18.90
2018-08-07T04:25:29.571Z,19.35
2018-08-07T04:26:03.310Z,19.57
2018-08-07T04:26:37.001Z,20.05
2018-08-07T04:27:10.692Z,19.60
2018-08-07T04:27:44.408Z,19.75
2018-08-07T04:28:18.096Z,20.80
2018-08-07T04:28:51.759Z,19.70
2018-08-07T04:29:25.419Z,22.02
2018-08-07T04:29:59.075Z,20.72
2018-08-07T04:30:32.750Z,22.00
2018-08-07T04:31:06.639Z,20.37
2018-08-07T04:31:40.383Z,21.68
2018-08-07T04:32:15.361Z,21.62
2018-08-07T04:32:49.033Z,21.40
2018-08-07T04:33:22.741Z,19.98
2018-08-07T04:33:56.399Z,22.58
2018-08-07T04:34:30.070Z,20.88
2018-08-07T04:35:04.118Z,21.05
2018-08-07T04:35:37.807Z,20.60
2018-08-07T04:36:11.456Z,21.27
2018-08-07T04:36:45.145Z,22.52
2018-08-07T04:37:18.819Z,21.68
2018-08-07T04:37:52.497Z,21.10
2018-08-07T04:38:26.197Z,22.20
2018-08-07T04:38:59.891Z,20.30
2018-08-07T04:39:33.657Z,21.05
2018-08-07T04:40:08.591Z,20.57
2018-08-07T04:40:42.252Z,20.48
2018-08-07T04:41:15.957Z,20.85
2018-08-07T04:41:49.644Z,20.80
2018-08-07T04:42:23.333Z,19.10
2018-08-07T04:42:57.087Z,21.12
2018-08-07T04:43:30.768Z,21.73
2018-08-07T04:44:04.719Z,19.12
2018-08-07T04:44:38.453Z,20.57
2018-08-07T04:45:13.797Z,21.05
2018-08-07T04:45:47.467Z,23.57
2018-08-07T04:46:21.086Z,23.18
2018-08-07T04:46:54.745Z,24.98
2018-08-07T04:47:28.492Z,23.85
2018-08-07T04:48:02.223Z,22.98
2018-08-07T04:48:35.929Z,22.32
2018-08-07T04:49:09.551Z,20.55
2018-08-07T04:49:43.276Z,22.32
2018-08-07T04:50:16.930Z,21.62
2018-08-07T04:50:50.559Z,19.15
2018-08-07T04:51:24.225Z,20.32
2018-08-07T04:51:57.892Z,23.02
2018-08-07T04:52:31.615Z,18.17
2018-08-07T04:53:05.325Z,20.95
2018-08-07T04:53:39.003Z,20.23
2018-08-07T04:54:12.624Z,20.08
2018-08-07T04:54:46.233Z,22.37
2018-08-07T04:55:19.845Z,21.25
2018-08-07T04:55:53.535Z,23.18
2018-08-07T04:56:27.161Z,21.60
2018-08-07T04:57:00.893Z,20.88
2018-08-07T04:57:34.709Z,22.22
2018-08-07T04:58:08.493Z,20.43
2018-08-07T04:58:42.087Z,21.25
2018-08-07T04:59:15.763Z,21.60
2018-08-07T04:59:49.450Z,20.02
2018-08-07T05:00:23.115Z,21.15
2018-08-07T05:00:57.379Z,22.90
2018-08-07T05:01:31.122Z,21.35
2018-08-07T05:02:04.883Z,20.68
2018-08-07T05:02:38.587Z,22.50
2018-08-07T05:03:12.291Z,22.35
2018-08-07T05:03:45.967Z,23.10
2018-08-07T05:04:19.586Z,21.42
2018-08-07T05:04:53.240Z,20.68
2018-08-07T05:05:26.863Z,22.52
2018-08-07T05:06:00.537Z,27.45
2018-08-07T05:06:34.216Z,24.50
2018-08-07T05:07:07.879Z,24.52
2018-08-07T05:07:41.592Z,21.10
2018-08-07T05:08:15.239Z,21.40
2018-08-07T05:08:48.901Z,21.80
2018-08-07T05:09:22.537Z,24.47
2018-08-07T05:09:56.163Z,25.37
2018-08-07T05:10:29.859Z,24.02
2018-08-07T05:11:03.465Z,25.95
2018-08-07T05:11:37.110Z,25.52
2018-08-07T05:12:10.739Z,22.85
2018-08-07T05:12:45.160Z,23.50
2018-08-07T05:13:18.847Z,23.62
2018-08-07T05:13:52.557Z,21.27
2018-08-07T05:14:26.206Z,27.22
2018-08-07T05:14:59.873Z,23.07
2018-08-07T05:15:33.645Z,23.18
2018-08-07T05:16:07.399Z,21.12
2018-08-07T05:16:41.037Z,22.00
2018-08-07T05:17:14.865Z,24.15
2018-08-07T05:17:48.787Z,23.98
2018-08-07T05:18:22.448Z,23.98
2018-08-07T05:18:56.161Z,22.05
2018-08-07T05:19:29.851Z,21.07
2018-08-07T05:20:04.087Z,23.80
2018-08-07T05:20:41.927Z,22.07
2018-08-07T05:21:15.865Z,20.30
2018-08-07T05:21:49.531Z,23.27
2018-08-07T05:22:23.180Z,20.95
2018-08-07T05:22:56.879Z,23.73
2018-08-07T05:23:30.572Z,20.82
2018-08-07T05:24:04.309Z,20.55
2018-08-07T05:24:37.992Z,22.52
2018-08-07T05:25:12.489Z,23.65
2018-08-07T05:25:46.221Z,22.87
2018-08-07T05:26:20.055Z,22.42
2018-08-07T05:26:54.371Z,25.00
2018-08-07T05:27:28.053Z,23.20
2018-08-07T05:28:01.772Z,21.23
2018-08-07T05:28:35.575Z,22.27
2018-08-07T05:29:09.551Z,21.70
2018-08-07T05:29:43.250Z,20.65
2018-08-07T05:30:17.138Z,19.62
2018-08-07T05:30:50.757Z,25.57
2018-08-07T05:31:24.441Z,21.10
2018-08-07T05:31:58.138Z,24.05
2018-08-07T05:32:31.597Z,23.47
2018-08-07T05:33:05.345Z,22.55
2018-08-07T05:33:39.095Z,22.82
2018-08-07T05:34:13.057Z,22.98
2018-08-07T05:34:46.825Z,22.22
2018-08-07T05:35:20.281Z,21.70
2018-08-07T05:35:54.119Z,24.35
2018-08-07T05:36:27.771Z,20.32
2018-08-07T05:37:02.001Z,24.10
2018-08-07T05:37:35.753Z,23.02
2018-08-07T05:38:09.455Z,22.00
2018-08-07T05:38:42.837Z,21.30
2018-08-07T05:39:16.529Z,22.32
2018-08-07T05:39:49.866Z,22.27
2018-08-07T05:40:23.069Z,21.07
2018-08-07T05:40:56.799Z,24.98
2018-08-07T05:41:30.226Z,21.07
2018-08-07T05:42:03.979Z,22.73
2018-08-07T05:42:37.449Z,22.55
2018-08-07T05:43:11.253Z,24.20
2018-08-07T05:43:44.478Z,20.82
2018-08-07T05:44:17.700Z,24.77
2018-08-07T05:44:50.879Z,23.30
2018-08-07T05:45:24.093Z,22.50
2018-08-07T05:45:57.481Z,23.07
2018-08-07T05:46:30.723Z,22.13
2018-08-07T05:47:03.932Z,20.10
2018-08-07T05:47:37.237Z,18.73
2018-08-07T05:48:10.659Z,22.22
2018-08-07T05:48:43.821Z,22.48
2018-08-07T05:49:17.101Z,21.55
2018-08-07T05:49:50.335Z,23.65
2018-08-07T05:50:23.617Z,26.65
2018-08-07T05:50:57.142Z,26.23
2018-08-07T05:51:30.282Z,29.25
2018-08-07T05:52:03.439Z,31.35
2018-08-07T05:52:36.791Z,29.75
2018-08-07T05:53:09.977Z,29.12
2018-08-07T05:53:43.085Z,27.00
2018-08-07T05:54:16.281Z,26.90
2018-08-07T05:54:49.429Z,31.35
2018-08-07T05:55:22.560Z,28.23
2018-08-07T05:55:55.691Z,26.70
2018-08-07T05:56:28.852Z,29.65
2018-08-07T05:57:01.998Z,27.73
2018-08-07T05:57:35.187Z,28.38
2018-08-07T05:58:08.405Z,26.68
2018-08-07T05:58:41.687Z,28.73
2018-08-07T05:59:14.898Z,28.25
2018-08-07T05:59:47.999Z,27.70
2018-08-07T06:00:21.199Z,30.65
2018-08-07T06:00:54.351Z,27.62
2018-08-07T06:01:27.533Z,24.45
2018-08-07T06:02:00.647Z,26.30
2018-08-07T06:02:33.789Z,26.68
2018-08-07T06:03:07.128Z,25.97
2018-08-07T06:03:40.271Z,26.93
2018-08-07T06:04:13.411Z,27.75
2018-08-07T06:04:46.563Z,27.50
2018-08-07T06:05:19.791Z,27.02
2018-08-07T06:05:52.996Z,24.70
2018-08-07T06:06:26.159Z,29.37
2018-08-07T06:06:59.305Z,28.00
2018-08-07T06:07:32.447Z,26.75
2018-08-07T06:08:05.957Z,25.20
2018-08-07T06:08:39.111Z,27.60
2018-08-07T06:09:12.257Z,26.37
2018-08-07T06:09:45.455Z,24.98
2018-08-07T06:10:18.597Z,25.00
2018-08-07T06:10:51.892Z,25.60
2018-08-07T06:11:25.030Z,24.35
2018-08-07T06:11:58.145Z,28.40
2018-08-07T06:12:31.274Z,24.85
2018-08-07T06:13:04.443Z,27.80
2018-08-07T06:13:37.609Z,23.18
2018-08-07T06:14:10.791Z,26.12
2018-08-07T06:14:43.959Z,26.48
2018-08-07T06:15:17.437Z,26.62
2018-08-07T06:15:50.592Z,27.77
2018-08-07T06:16:23.905Z,26.90
2018-08-07T06:16:57.156Z,28.87
2018-08-07T06:17:30.309Z,28.15
2018-08-07T06:18:04.160Z,26.77
2018-08-07T06:18:37.267Z,27.70
2018-08-07T06:19:10.478Z,27.65
2018-08-07T06:19:43.573Z,27.62
2018-08-07T06:20:16.685Z,25.35
2018-08-07T06:20:49.829Z,25.50
2018-08-07T06:21:23.059Z,28.25
2018-08-07T06:21:56.225Z,27.65
2018-08-07T06:22:29.417Z,28.92
2018-08-07T06:23:02.552Z,27.98
2018-08-07T06:23:35.655Z,33.28
2018-08-07T06:24:08.815Z,25.77
2018-08-07T06:24:41.966Z,30.23
2018-08-07T06:25:15.061Z,28.83
2018-08-07T06:25:48.205Z,28.57
2018-08-07T06:26:21.353Z,29.35
2018-08-07T06:26:54.459Z,25.17
2018-08-07T06:27:27.576Z,30.10
2018-08-07T06:28:00.722Z,29.57
2018-08-07T06:28:33.960Z,27.87
2018-08-07T06:29:07.210Z,26.42
2018-08-07T06:29:40.344Z,28.50
2018-08-07T06:30:19.075Z,25.88
2018-08-07T06:30:52.226Z,27.80
2018-08-07T06:31:25.452Z,26.73
2018-08-07T06:31:58.536Z,27.50
2018-08-07T06:32:31.699Z,29.02
2018-08-07T06:33:04.824Z,26.33
2018-08-07T06:33:37.997Z,26.52
2018-08-07T06:34:11.171Z,26.57
2018-08-07T06:34:44.307Z,28.07
2018-08-07T06:35:18.088Z,27.05
2018-08-07T06:35:51.230Z,27.80
2018-08-07T06:36:24.396Z,26.07
2018-08-07T06:36:57.517Z,24.37
2018-08-07T06:37:30.644Z,25.10
2018-08-07T06:38:03.851Z,24.37
2018-08-07T06:38:37.015Z,24.98
2018-08-07T06:39:10.171Z,25.77
2018-08-07T06:39:43.322Z,24.92
2018-08-07T06:40:16.493Z,25.40
2018-08-07T06:40:49.635Z,23.98
2018-08-07T06:41:22.833Z,24.47
2018-08-07T06:41:55.970Z,24.02
2018-08-07T06:42:29.117Z,27.07
2018-08-07T06:43:02.325Z,28.05
2018-08-07T06:43:35.428Z,24.23
2018-08-07T06:44:08.659Z,25.55
2018-08-07T06:44:41.767Z,27.42
2018-08-07T06:45:16.227Z,25.77
2018-08-07T06:45:49.388Z,23.85
2018-08-07T06:46:22.494Z,23.98
2018-08-07T06:46:55.617Z,25.08
2018-08-07T06:47:28.741Z,25.45
2018-08-07T06:48:01.945Z,24.47
2018-08-07T06:48:35.050Z,25.35
2018-08-07T06:49:08.225Z,26.02
2018-08-07T06:49:41.411Z,23.50
2018-08-07T06:50:16.990Z,24.23
2018-08-07T06:50:50.161Z,21.60
2018-08-07T06:51:23.343Z,25.08
2018-08-07T06:51:56.489Z,21.05
2018-08-07T06:52:29.649Z,18.90
2018-08-07T06:53:02.791Z,23.02
2018-08-07T06:53:35.939Z,19.95
2018-08-07T06:54:09.110Z,18.50
2018-08-07T06:54:42.255Z,19.85
2018-08-07T06:55:15.516Z,19.05
2018-08-07T06:55:48.703Z,16.15
2018-08-07T06:56:21.871Z,18.77
2018-08-07T06:56:55.075Z,18.73
2018-08-07T06:57:28.208Z,18.00
2018-08-07T06:58:01.335Z,17.80
2018-08-07T06:58:34.575Z,17.02
2018-08-07T06:59:07.761Z,18.37
2018-08-07T06:59:40.895Z,14.20
2018-08-07T07:00:25.129Z,14.65
2018-08-07T07:00:58.301Z,15.00
2018-08-07T07:01:31.415Z,12.60
2018-08-07T07:02:04.547Z,13.05
2018-08-07T07:02:37.719Z,16.25
2018-08-07T07:03:10.891Z,13.05
2018-08-07T07:03:44.065Z,13.28
2018-08-07T07:04:17.201Z,15.83
2018-08-07T07:04:50.288Z,12.90
2018-08-07T07:05:23.429Z,11.80
2018-08-07T07:05:56.598Z,14.03
2018-08-07T07:06:29.728Z,11.93
2018-08-07T07:07:02.869Z,14.60
2018-08-07T07:07:36.081Z,11.43
2018-08-07T07:08:09.254Z,14.33
2018-08-07T07:08:42.399Z,12.95
2018-08-07T07:09:15.539Z,12.45
2018-08-07T07:09:48.675Z,13.68
2018-08-07T07:10:21.883Z,14.78
2018-08-07T07:10:55.007Z,12.60
2018-08-07T07:11:28.117Z,14.38
2018-08-07T07:12:01.279Z,12.23
2018-08-07T07:12:34.449Z,11.90
2018-08-07T07:13:07.581Z,15.60
2018-08-07T07:13:40.726Z,11.25
2018-08-07T07:14:13.892Z,10.58